sensor_id;sensor_type;location;lat;lon;timestamp;pressure;altitude;pressure_sealevel;temperature;humidity
15558;BME280;7880;50.110;9.372;2022-12-11T00:02:43;-1.6133273839950562;;;-1.5;100.0
15558;BME280;7880;50.110;9.372;2022-12-11T00:07:42;-1.6486185874266084;;;-1.562;100.0
15558;BME280;7880;50.110;9.372;2022-12-11T00:12:46;-1.7696168909256813;;;-1.562;100.0
15558;BME280;7880;50.110;9.372;2022-12-11T00:17:48;-1.8200328012404499;;;-1.687;100.0
15558;BME280;7880;50.110;9.372;2022-12-11T00:22:52;-1.8906150267866906;;;-1.75;100.0
15558;BME280;7880;50.110;9.372;2022-12-11T00:27:58;-1.9107813664653803;;;-1.75;100.0
15558;BME280;7880;50.110;9.372;2022-12-11T00:33:02;-1.900698197208112;;;-1.75;100.0
15558;BME280;7880;50.110;9.372;2022-12-11T00:38:06;-2.0368208839558064;;;-1.875;100.0
15558;BME280;7880;50.110;9.372;2022-12-11T00:43:09;-1.9208645345584956;;;-1.812;100.0
15558;BME280;7880;50.110;9.372;2022-12-11T00:48:13;-2.1679017891874537;;;-1.937;100.0
15558;BME280;7880;50.110;9.372;2022-12-11T00:53:20;-2.25864999294281;;;-2.062;100.0
15558;BME280;7880;50.110;9.372;2022-12-11T00:58:21;-2.051945613831049;;;-1.937;100.0
15558;BME280;7880;50.110;9.372;2022-12-11T01:03:26;-2.1679017891874537;;;-2.0;100.0
15558;BME280;7880;50.110;9.372;2022-12-11T01:08:30;-2.1174860796891153;;;-1.937;100.0
15558;BME280;7880;50.110;9.372;2022-12-11T01:13:37;-2.177984927594662;;;-2.0;100.0
15558;BME280;7880;50.110;9.372;2022-12-11T01:18:41;-2.172943358536577;;;-2.062;100.0
15558;BME280;7880;50.110;9.372;2022-12-11T01:23:49;-2.198151200916618;;;-2.062;100.0
15558;BME280;7880;50.110;9.372;2022-12-11T01:28:55;-2.102361361164367;;;-1.937;100.0
15558;BME280;7880;50.110;9.372;2022-12-11T01:33:56;-2.183026496361708;;;-2.0;100.0
15558;BME280;7880;50.110;9.372;2022-12-11T01:39:01;-2.1174860796891153;;;-2.0;100.0
15558;BME280;7880;50.110;9.372;2022-12-11T01:45:00;-2.13765236698091;;;-1.937;100.0
15558;BME280;7880;50.110;9.372;2022-12-11T01:49:53;-2.238483733590692;;;-2.062;100.0
15558;BME280;7880;50.110;9.372;2022-12-11T01:55:08;-2.3947721217700746;;;-2.187;100.0
15558;BME280;7880;50.110;9.372;2022-12-11T02:00:05;-2.2031927685195116;;;-2.125;100.0
15558;BME280;7880;50.110;9.372;2022-12-11T02:05:07;-2.2536084285413382;;;-2.125;100.0
15558;BME280;7880;50.110;9.372;2022-12-11T02:10:10;-2.172943358536577;;;-2.062;100.0
15558;BME280;7880;50.110;9.372;2022-12-11T02:15:16;-2.223359036020702;;;-2.125;100.0
15558;BME280;7880;50.110;9.372;2022-12-11T02:20:22;-2.480478538479656;;;-2.25;100.0
15558;BME280;7880;50.110;9.372;2022-12-11T02:25:27;-2.490561640798114;;;-2.375;100.0
15558;BME280;7880;50.110;9.372;2022-12-11T02:30:36;-2.485520089784404;;;-2.375;100.0
15558;BME280;7880;50.110;9.372;2022-12-11T02:35:40;-2.3645227781438733;;;-2.25;100.0
15558;BME280;7880;50.110;9.372;2022-12-11T02:40:45;-2.2284006021684037;;;-2.125;100.0
15558;BME280;7880;50.110;9.372;2022-12-11T02:45:50;-2.2737746844009963;;;-2.125;100.0
15558;BME280;7880;50.110;9.372;2022-12-11T02:50:55;-2.238483733590692;;;-2.062;100.0
15558;BME280;7880;50.110;9.372;2022-12-11T02:56:01;-2.132610795594519;;;-2.0;100.0
15558;BME280;7880;50.110;9.372;2022-12-11T03:01:00;-2.25864999294281;;;-2.125;100.0
15558;BME280;7880;50.110;9.372;2022-12-11T03:06:05;-2.238483733590692;;;-2.062;100.0
15558;BME280;7880;50.110;9.372;2022-12-11T03:11:09;-2.298982497677207;;;-2.125;100.0
15558;BME280;7880;50.110;9.372;2022-12-11T03:16:22;-2.329231864004396;;;-2.187;100.0
15558;BME280;7880;50.110;9.372;2022-12-11T03:21:21;-2.3443565432389732;;;-2.125;100.0
15558;BME280;7880;50.110;9.372;2022-12-11T03:26:22;-2.3846890083921606;;;-2.25;100.0
15558;BME280;7880;50.110;9.372;2022-12-11T03:31:30;-2.3443565432389732;;;-2.187;100.0
15558;BME280;7880;50.110;9.372;2022-12-11T03:36:32;-2.2888993732398375;;;-2.125;100.0
15558;BME280;7880;50.110;9.372;2022-12-11T03:41:38;-2.3947721217700746;;;-2.187;100.0
15558;BME280;7880;50.110;9.372;2022-12-11T03:46:49;-2.3947721217700746;;;-2.125;100.0
15558;BME280;7880;50.110;9.372;2022-12-11T03:51:42;-2.45527077759034;;;-2.25;100.0
15558;BME280;7880;50.110;9.372;2022-12-11T03:56:54;-2.2183174695819616;;;-2.125;100.0
15558;BME280;7880;50.110;9.372;2022-12-11T04:01:50;-2.3393149837851523;;;-2.187;100.0
15558;BME280;7880;50.110;9.372;2022-12-11T04:06:55;-2.213275902852183;;;-2.062;100.0
15558;BME280;7880;50.110;9.372;2022-12-11T04:11:59;-2.2284006021684037;;;-2.062;100.0
15558;BME280;7880;50.110;9.372;2022-12-11T04:17:07;-2.6922234426951035;;;-2.437;100.0
15558;BME280;7880;50.110;9.372;2022-12-11T04:24:14;-2.3846890083921606;;;-2.25;100.0
15558;BME280;7880;50.110;9.372;2022-12-11T04:28:53;-2.546018682740396;;;-2.312;100.0
15558;BME280;7880;50.110;9.372;2022-12-11T04:33:20;-2.5258524897450116;;;-2.375;100.0
15558;BME280;7880;50.110;9.372;2022-12-11T04:38:17;-2.661974202096462;;;-2.437;100.0
15558;BME280;7880;50.110;9.372;2022-12-11T04:43:20;-2.722472672816366;;;-2.562;100.0
15558;BME280;7880;50.110;9.372;2022-12-11T04:48:26;-2.5712264174362645;;;-2.437;100.0
15558;BME280;7880;50.110;9.372;2022-12-11T04:53:29;-2.7527218924602495;;;-2.562;100.0
15558;BME280;7880;50.110;9.372;2022-12-11T04:58:35;-2.5913925999542697;;;-2.437;100.0
15558;BME280;7880;50.110;9.372;2022-12-11T05:03:39;-2.5762679635023233;;;-2.437;100.0
15558;BME280;7880;50.110;9.372;2022-12-11T05:08:43;-2.606517233786872;;;-2.5;100.0
15558;BME280;7880;50.110;9.372;2022-12-11T05:13:46;-2.7123895972734315;;;-2.562;100.0
15558;BME280;7880;50.110;9.372;2022-12-11T05:18:49;-2.73759728394798;;;-2.625;100.0
15558;BME280;7880;50.110;9.372;2022-12-11T05:23:56;-2.909009360376513;;;-2.687;100.0
15558;BME280;7880;50.110;9.372;2022-12-11T05:28:57;-2.9392585154098922;;;-2.75;100.0
15558;BME280;7880;50.110;9.372;2022-12-11T05:34:00;-2.9291754648962525;;;-2.687;100.0
15558;BME280;7880;50.110;9.372;2022-12-11T05:39:04;-2.717431135190418;;;-2.562;100.0
15558;BME280;7880;50.110;9.372;2022-12-11T05:44:09;-2.7577634280489294;;;-2.687;100.0
15558;BME280;7880;50.110;9.372;2022-12-11T05:49:11;-3.0249643977731466;;;-2.812;100.0
15558;BME280;7880;50.110;9.372;2022-12-11T05:54:21;-2.8938847789308055;;;-2.75;100.0
15558;BME280;7880;50.110;9.372;2022-12-11T05:59:23;-2.919092413218459;;;-2.75;100.0
15558;BME280;7880;50.110;9.372;2022-12-11T06:04:25;-2.989673750515794;;;-2.812;100.0
15558;BME280;7880;50.110;9.372;2022-12-11T06:09:29;-3.130836253979942;;;-3.0;100.0
15558;BME280;7880;50.110;9.372;2022-12-11T06:14:34;-2.9342169902985917;;;-2.812;100.0
15558;BME280;7880;50.110;9.372;2022-12-11T06:19:38;-2.919092413218459;;;-2.75;100.0
15558;BME280;7880;50.110;9.372;2022-12-11T06:24:45;-3.0350474372273313;;;-2.875;100.0
15558;BME280;7880;50.110;9.372;2022-12-11T06:29:46;-3.0501719942258205;;;-2.875;100.0
15558;BME280;7880;50.110;9.372;2022-12-11T06:34:50;-3.120753225585213;;;-2.875;100.0
15558;BME280;7880;50.110;9.372;2022-12-11T06:39:54;-3.0905041334161067;;;-2.875;100.0
15558;BME280;7880;50.110;9.372;2022-12-11T06:44:59;-3.0451304755173623;;;-2.875;100.0
15558;BME280;7880;50.110;9.372;2022-12-11T06:50:02;-3.0249643977731466;;;-2.875;100.0
15558;BME280;7880;50.110;9.372;2022-12-11T06:55:07;-2.944300040230155;;;-2.812;100.0
15558;BME280;7880;50.110;9.372;2022-12-11T07:00:10;-2.848511018877616;;;-2.687;100.0
15558;BME280;7880;50.110;9.372;2022-12-11T07:05:12;-3.1913343999010975;;;-2.875;100.0
15558;BME280;7880;50.110;9.372;2022-12-11T07:10:17;-2.994715272425674;;;-2.812;100.0
15558;BME280;7880;50.110;9.372;2022-12-11T07:15:21;-2.9392585154098922;;;-2.812;100.0
15558;BME280;7880;50.110;9.372;2022-12-11T07:20:25;-2.9846322283148767;;;-2.812;100.0
15558;BME280;7880;50.110;9.372;2022-12-11T07:25:29;-3.145960794389248;;;-2.937;100.0
15558;BME280;7880;50.110;9.372;2022-12-11T07:30:33;-3.181251378491288;;;-3.0;100.0
15558;BME280;7880;50.110;9.372;2022-12-11T07:35:36;-3.019922877609497;;;-2.875;100.0
15558;BME280;7880;50.110;9.372;2022-12-11T07:40:41;-2.974549183039926;;;-2.812;100.0
15558;BME280;7880;50.110;9.372;2022-12-11T07:45:45;-3.0905041334161067;;;-2.937;100.0
15558;BME280;7880;50.110;9.372;2022-12-11T07:50:49;-3.120753225585213;;;-2.937;100.0
15558;BME280;7880;50.110;9.372;2022-12-11T07:55:52;-3.130836253979942;;;-2.937;100.0
15558;BME280;7880;50.110;9.372;2022-12-11T08:00:57;-3.120753225585213;;;-2.937;100.0
15558;BME280;7880;50.110;9.372;2022-12-11T08:06:03;-3.135877767740749;;;-2.937;100.0
15558;BME280;7880;50.110;9.372;2022-12-11T08:11:10;-2.999756794044515;;;-2.812;100.0
15558;BME280;7880;50.110;9.372;2022-12-11T08:16:14;-3.15100230727694;;;-2.937;100.0
15558;BME280;7880;50.110;9.372;2022-12-11T08:21:21;-3.221583457145607;;;-2.937;100.0
15558;BME280;7880;50.110;9.372;2022-12-11T08:26:25;-3.0350474372273313;;;-2.875;100.0
15558;BME280;7880;50.110;9.372;2022-12-11T08:31:31;-3.0955456495052203;;;-2.812;100.0
15558;BME280;7880;50.110;9.372;2022-12-11T08:36:40;-3.0955456495052203;;;-2.875;100.0
15558;BME280;7880;50.110;9.372;2022-12-11T08:41:33;-3.075379583402537;;;-2.875;100.0
15558;BME280;7880;50.110;9.372;2022-12-11T08:46:40;-2.9846322283148767;;;-2.812;100.0
15558;BME280;7880;50.110;9.372;2022-12-11T08:51:44;-2.969507659965893;;;-2.75;100.0
15558;BME280;7880;50.110;9.372;2022-12-11T08:56:59;-3.2115004392282573;;;-2.875;100.0
15558;BME280;7880;50.110;9.372;2022-12-11T09:01:50;-2.989673750515794;;;-2.812;100.0
15558;BME280;7880;50.110;9.372;2022-12-11T09:06:56;-2.878760194865754;;;-2.687;100.0
15558;BME280;7880;50.110;9.372;2022-12-11T09:12:05;-2.803137235250324;;;-2.625;100.0
15558;BME280;7880;50.110;9.372;2022-12-11T09:17:04;-2.9795907058229205;;;-2.75;100.0
15558;BME280;7880;50.110;9.372;2022-12-11T09:22:12;-2.813220300315879;;;-2.562;100.0
15558;BME280;7880;50.110;9.372;2022-12-11T09:27:15;-2.88884325120016;;;-2.562;100.0
15558;BME280;7880;50.110;9.372;2022-12-11T09:37:32;-2.6216418650001287;;;-2.437;100.0
15558;BME280;7880;50.110;9.372;2022-12-11T09:42:45;-2.6871819033229256;;;-2.5;100.0
15558;BME280;7880;50.110;9.372;2022-12-11T09:47:41;-2.68214036365971;;;-2.5;100.0
15558;BME280;7880;50.110;9.372;2022-12-11T09:52:54;-2.6014756894670428;;;-2.437;100.0
15558;BME280;7880;50.110;9.372;2022-12-11T09:57:53;-2.465353882819181;;;-2.25;100.0
15558;BME280;7880;50.110;9.372;2022-12-11T10:03:26;-2.45527077759034;;;-2.187;100.0
15558;BME280;7880;50.110;9.372;2022-12-11T10:08:13;-2.4401461175642907;;;-2.25;100.0
15558;BME280;7880;50.110;9.372;2022-12-11T10:13:28;-2.5964341448561754;;;-2.312;100.0
15558;BME280;7880;50.110;9.372;2022-12-11T10:18:32;-2.490561640798114;;;-2.25;100.0
15558;BME280;7880;50.110;9.372;2022-12-11T10:23:27;-2.495603191520786;;;-2.312;100.0
15558;BME280;7880;50.110;9.372;2022-12-11T10:28:32;-2.3695643361425027;;;-2.187;100.0
15558;BME280;7880;50.110;9.372;2022-12-11T10:33:34;-2.309065620950423;;;-2.125;100.0
15558;BME280;7880;50.110;9.372;2022-12-11T10:38:41;-2.2737746844009963;;;-2.062;100.0
15558;BME280;7880;50.110;9.372;2022-12-11T10:43:43;-2.2536084285413382;;;-2.062;100.0
15558;BME280;7880;50.110;9.372;2022-12-11T10:48:46;-2.243525298865279;;;-2.062;100.0
15558;BME280;7880;50.110;9.372;2022-12-11T10:53:52;-2.177984927594662;;;-2.0;100.0
15558;BME280;7880;50.110;9.372;2022-12-11T10:58:59;-2.1931096330226865;;;-2.0;100.0
15558;BME280;7880;50.110;9.372;2022-12-11T11:04:14;-2.1124445071385707;;;-1.875;100.0
15558;BME280;7880;50.110;9.372;2022-12-11T11:09:27;-2.0368208839558064;;;-1.875;100.0
15558;BME280;7880;50.110;9.372;2022-12-11T11:14:14;-1.9309477014874574;;;-1.75;100.0
15558;BME280;7880;50.110;9.372;2022-12-11T11:19:19;-1.5477865397871937;;;-1.5;100.0
15558;BME280;7880;50.110;9.372;2022-12-11T11:24:31;-1.9158229506574571;;;-1.625;100.0
15558;BME280;7880;50.110;9.372;2022-12-11T11:29:33;-1.875490268971771;;;-1.75;100.0
15558;BME280;7880;50.110;9.372;2022-12-11T11:34:32;-1.8603655085375066;;;-1.687;100.0
15558;BME280;7880;50.110;9.372;2022-12-11T11:39:39;-1.9712803575617728;;;-1.75;100.0
15558;BME280;7880;50.110;9.372;2022-12-11T11:44:46;-2.031779306748649;;;-1.812;100.0
15558;BME280;7880;50.110;9.372;2022-12-11T11:50:00;-2.1225276519486216;;;-1.937;100.0
15558;BME280;7880;50.110;9.372;2022-12-11T11:55:12;-1.9208645345584956;;;-1.75;100.0
15558;BME280;7880;50.110;9.372;2022-12-11T12:00:17;-1.941030867252266;;;-1.812;100.0
15558;BME280;7880;50.110;9.372;2022-12-11T12:05:08;-1.799866440607002;;;-1.625;100.0
15558;BME280;7880;50.110;9.372;2022-12-11T12:10:17;-1.8502823334594722;;;-1.687;100.0
15558;BME280;7880;50.110;9.372;2022-12-11T12:15:26;-1.4923288639634849;;;-1.375;100.0
15558;BME280;7880;50.110;9.372;2022-12-11T12:20:26;-1.6435769878095017;;;-1.375;100.0
15558;BME280;7880;50.110;9.372;2022-12-11T12:25:27;-1.7494505186507012;;;-1.562;100.0
15558;BME280;7880;50.110;9.372;2022-12-11T12:30:34;-1.7393673307669815;;;-1.562;100.0
15558;BME280;7880;50.110;9.372;2022-12-11T12:35:35;-1.784741667076014;;;-1.562;100.0
15558;BME280;7880;50.110;9.372;2022-12-11T12:40:50;-1.8805318552011159;;;-1.687;100.0
15558;BME280;7880;50.110;9.372;2022-12-11T12:45:45;-2.0469040374970064;;;-1.875;100.0
15558;BME280;7880;50.110;9.372;2022-12-11T12:50:46;-1.900698197208112;;;-1.75;100.0
15558;BME280;7880;50.110;9.372;2022-12-11T12:55:48;-1.7897832585440483;;;-1.625;100.0
15558;BME280;7880;50.110;9.372;2022-12-11T13:01:08;-1.7746584832668304;;;-1.562;100.0
15558;BME280;7880;50.110;9.372;2022-12-11T13:06:05;-1.784741667076014;;;-1.625;100.0
15558;BME280;7880;50.110;9.372;2022-12-11T13:11:08;-1.734325736388564;;;-1.625;100.0
15558;BME280;7880;50.110;9.372;2022-12-11T13:16:35;-1.7040761640062556;;;-1.562;100.0
15558;BME280;7880;50.110;9.372;2022-12-11T13:21:26;-1.8401991572172847;;;-1.625;100.0
15558;BME280;7880;50.110;9.372;2022-12-11T13:26:27;-1.875490268971771;;;-1.687;100.0
15558;BME280;7880;50.110;9.372;2022-12-11T13:31:33;-1.8654070956399664;;;-1.687;100.0
15558;BME280;7880;50.110;9.372;2022-12-11T13:36:32;-1.6939929708838464;;;-1.562;100.0
15558;BME280;7880;50.110;9.372;2022-12-11T13:41:45;-1.8603655085375066;;;-1.625;100.0
15558;BME280;7880;50.110;9.372;2022-12-11T13:46:42;-1.7948248497210444;;;-1.625;100.0
15558;BME280;7880;50.110;9.372;2022-12-11T13:51:52;-1.870448682451388;;;-1.625;100.0
15558;BME280;7880;50.110;9.372;2022-12-11T13:56:54;-1.8099496215058024;;;-1.625;100.0
15558;BME280;7880;50.110;9.372;2022-12-11T14:01:54;-1.7292841417191085;;;-1.562;100.0
15558;BME280;7880;50.110;9.372;2022-12-11T14:07:08;-1.7948248497210444;;;-1.625;100.0
15558;BME280;7880;50.110;9.372;2022-12-11T14:12:03;-1.8956566121429206;;;-1.687;100.0
15558;BME280;7880;50.110;9.372;2022-12-11T14:17:14;-1.8099496215058024;;;-1.625;100.0
15558;BME280;7880;50.110;9.372;2022-12-11T14:22:18;-1.8502823334594722;;;-1.687;100.0
15558;BME280;7880;50.110;9.372;2022-12-11T14:27:16;-1.870448682451388;;;-1.687;100.0
15558;BME280;7880;50.110;9.372;2022-12-11T14:32:24;-1.875490268971771;;;-1.687;100.0
15558;BME280;7880;50.110;9.372;2022-12-11T14:37:33;-2.0015298373939006;;;-1.75;100.0
15558;BME280;7880;50.110;9.372;2022-12-11T14:41:57;-1.9309477014874574;;;-1.75;100.0
15558;BME280;7880;50.110;9.372;2022-12-11T14:47:03;-1.9712803575617728;;;-1.75;100.0
15558;BME280;7880;50.110;9.372;2022-12-11T14:52:06;-1.991446678614011;;;-1.75;100.0
15558;BME280;7880;50.110;9.372;2022-12-11T14:57:17;-1.9561556137166918;;;-1.75;100.0
15558;BME280;7880;50.110;9.372;2022-12-11T15:02:25;-2.0015298373939006;;;-1.75;100.0
15558;BME280;7880;50.110;9.372;2022-12-11T15:07:24;-2.062028765626019;;;-1.875;100.0
15558;BME280;7880;50.110;9.372;2022-12-11T15:12:23;-2.0973197877407075;;;-1.875;100.0
15558;BME280;7880;50.110;9.372;2022-12-11T15:17:27;-2.1679017891874537;;;-1.937;100.0
15558;BME280;7880;50.110;9.372;2022-12-11T15:22:47;-2.051945613831049;;;-1.875;100.0
15558;BME280;7880;50.110;9.372;2022-12-11T15:27:43;-2.1679017891874537;;;-2.0;100.0
15558;BME280;7880;50.110;9.372;2022-12-11T15:32:42;-2.0872366400202735;;;-1.937;100.0
15558;BME280;7880;50.110;9.372;2022-12-11T15:37:51;-2.1880680648377164;;;-2.0;100.0
15558;BME280;7880;50.110;9.372;2022-12-11T15:42:55;-2.3040240594593344;;;-2.125;100.0
15558;BME280;7880;50.110;9.372;2022-12-11T15:47:54;-2.2838578105845952;;;-2.125;100.0
15558;BME280;7880;50.110;9.372;2022-12-11T15:53:03;-2.2536084285413382;;;-2.062;100.0
15558;BME280;7880;50.110;9.372;2022-12-11T15:58:06;-2.223359036020702;;;-2.062;100.0
15558;BME280;7880;50.110;9.372;2022-12-11T16:03:18;-2.183026496361708;;;-2.0;100.0
15558;BME280;7880;50.110;9.372;2022-12-11T16:08:16;-2.3393149837851523;;;-2.125;100.0
15558;BME280;7880;50.110;9.372;2022-12-11T16:13:16;-2.1275692239170896;;;-2.0;100.0
15558;BME280;7880;50.110;9.372;2022-12-11T16:18:23;-2.1880680648377164;;;-2.0;100.0
15558;BME280;7880;50.110;9.372;2022-12-11T16:23:25;-2.172943358536577;;;-2.0;100.0
15558;BME280;7880;50.110;9.372;2022-12-11T16:28:30;-2.223359036020702;;;-2.0;100.0
15558;BME280;7880;50.110;9.372;2022-12-11T16:33:40;-2.1225276519486216;;;-1.937;100.0
15558;BME280;7880;50.110;9.372;2022-12-11T16:38:43;-2.268733120872639;;;-2.0;100.0
15558;BME280;7880;50.110;9.372;2022-12-11T16:43:45;-2.051945613831049;;;-1.812;100.0
15558;BME280;7880;50.110;9.372;2022-12-11T16:48:49;-2.172943358536577;;;-2.0;100.0
15558;BME280;7880;50.110;9.372;2022-12-11T16:53:55;-2.1578186496160923;;;-1.937;100.0
15558;BME280;7880;50.110;9.372;2022-12-11T16:58:56;-2.062028765626019;;;-1.875;100.0
15558;BME280;7880;50.110;9.372;2022-12-11T17:04:08;-2.1275692239170896;;;-1.937;100.0
15558;BME280;7880;50.110;9.372;2022-12-11T17:09:06;-2.1174860796891153;;;-1.937;100.0
15558;BME280;7880;50.110;9.372;2022-12-11T17:14:17;-2.298982497677207;;;-2.125;100.0
15558;BME280;7880;50.110;9.372;2022-12-11T17:19:18;-2.2939409356040414;;;-2.125;100.0
15558;BME280;7880;50.110;9.372;2022-12-11T17:24:25;-2.2536084285413382;;;-2.062;100.0
15558;BME280;7880;50.110;9.372;2022-12-11T17:29:26;-2.490561640798114;;;-2.25;100.0
15558;BME280;7880;50.110;9.372;2022-12-11T17:34:37;-2.465353882819181;;;-2.375;100.0
15558;BME280;7880;50.110;9.372;2022-12-11T17:39:37;-2.3241903036774603;;;-2.25;100.0
15558;BME280;7880;50.110;9.372;2022-12-11T17:44:49;-2.5661848710791673;;;-2.375;100.0
15558;BME280;7880;50.110;9.372;2022-12-11T17:49:49;-2.5208109407685697;;;-2.312;100.0
15558;BME280;7880;50.110;9.372;2022-12-11T17:54:53;-2.546018682740396;;;-2.375;100.0
15558;BME280;7880;50.110;9.372;2022-12-11T18:00:14;-2.4754369868838695;;;-2.312;100.0
15558;BME280;7880;50.110;9.372;2022-12-11T18:05:01;-2.3897305652266367;;;-2.187;100.0
15558;BME280;7880;50.110;9.372;2022-12-11T18:10:06;-2.2284006021684037;;;-2.062;100.0
15558;BME280;7880;50.110;9.372;2022-12-11T18:15:10;-2.25864999294281;;;-2.062;100.0
15558;BME280;7880;50.110;9.372;2022-12-11T18:20:17;-2.2838578105845952;;;-2.125;100.0
15558;BME280;7880;50.110;9.372;2022-12-11T18:25:29;-2.4351045636401976;;;-2.187;100.0
15558;BME280;7880;50.110;9.372;2022-12-11T18:30:29;-2.233442168025067;;;-2.062;100.0
15558;BME280;7880;50.110;9.372;2022-12-11T18:35:35;-2.147735508880578;;;-1.937;100.0
15558;BME280;7880;50.110;9.372;2022-12-11T18:40:34;-2.3796474512666466;;;-2.125;100.0
15558;BME280;7880;50.110;9.372;2022-12-11T18:45:40;-2.243525298865279;;;-2.062;100.0
15558;BME280;7880;50.110;9.372;2022-12-11T18:50:44;-2.162860219547292;;;-2.0;100.0
15558;BME280;7880;50.110;9.372;2022-12-11T18:55:56;-2.1880680648377164;;;-1.937;100.0
15558;BME280;7880;50.110;9.372;2022-12-11T19:00:58;-2.2183174695819616;;;-2.0;100.0
15558;BME280;7880;50.110;9.372;2022-12-11T19:06:05;-2.213275902852183;;;-2.062;100.0
15558;BME280;7880;50.110;9.372;2022-12-11T19:11:03;-2.3443565432389732;;;-2.125;100.0
15558;BME280;7880;50.110;9.372;2022-12-11T19:16:13;-2.5561017774918584;;;-2.375;100.0
15558;BME280;7880;50.110;9.372;2022-12-11T19:21:14;-2.641808035876602;;;-2.5;100.0
15558;BME280;7880;50.110;9.372;2022-12-11T19:26:19;-2.7275142101512757;;;-2.625;100.0
15558;BME280;7880;50.110;9.372;2022-12-11T19:31:23;-2.7577634280489294;;;-2.562;100.0
15558;BME280;7880;50.110;9.372;2022-12-11T19:36:29;-2.808178767928621;;;-2.687;100.0
15558;BME280;7880;50.110;9.372;2022-12-11T19:41:35;-2.68214036365971;;;-2.562;100.0
15558;BME280;7880;50.110;9.372;2022-12-11T19:46:06;-2.7023065205663443;;;-2.625;100.0
15558;BME280;7880;50.110;9.372;2022-12-11T19:51:13;-2.914050886943005;;;-2.687;100.0
15558;BME280;7880;50.110;9.372;2022-12-11T19:56:13;-2.7880126354692036;;;-2.625;100.0
15558;BME280;7880;50.110;9.372;2022-12-11T20:01:18;-2.7426388204097747;;;-2.562;100.0
15558;BME280;7880;50.110;9.372;2022-12-11T20:06:21;-2.6166003215534146;;;-2.437;100.0
15558;BME280;7880;50.110;9.372;2022-12-11T20:11:25;-2.6720572834601626;;;-2.437;100.0
15558;BME280;7880;50.110;9.372;2022-12-11T20:16:29;-2.656932660978055;;;-2.5;100.0
15558;BME280;7880;50.110;9.372;2022-12-11T20:21:35;-2.7476803565805312;;;-2.5;100.0
15558;BME280;7880;50.110;9.372;2022-12-11T20:26:37;-2.697264981776243;;;-2.562;100.0
15558;BME280;7880;50.110;9.372;2022-12-11T20:31:41;-2.6670157429238315;;;-2.5;100.0
15558;BME280;7880;50.110;9.372;2022-12-11T20:36:47;-2.9291754648962525;;;-2.625;100.0
15558;BME280;7880;50.110;9.372;2022-12-11T20:42:04;-2.7779295674932656;;;-2.562;100.0
15558;BME280;7880;50.110;9.372;2022-12-11T20:46:58;-2.848511018877616;;;-2.687;100.0
15558;BME280;7880;50.110;9.372;2022-12-11T20:52:03;-2.8434694885276257;;;-2.687;100.0
15558;BME280;7880;50.110;9.372;2022-12-11T20:57:04;-2.88884325120016;;;-2.687;100.0
15558;BME280;7880;50.110;9.372;2022-12-11T21:02:09;-2.944300040230155;;;-2.75;100.0
15558;BME280;7880;50.110;9.372;2022-12-11T21:07:11;-2.8838017231784763;;;-2.687;100.0
15558;BME280;7880;50.110;9.372;2022-12-11T21:12:14;-2.9493415647593793;;;-2.75;100.0
15558;BME280;7880;50.110;9.372;2022-12-11T21:17:18;-2.959424612944713;;;-2.812;100.0
15558;BME280;7880;50.110;9.372;2022-12-11T21:22:25;-2.914050886943005;;;-2.75;100.0
15558;BME280;7880;50.110;9.372;2022-12-11T21:27:29;-3.0148813571548088;;;-2.75;100.0
15558;BME280;7880;50.110;9.372;2022-12-11T21:32:32;-2.9392585154098922;;;-2.75;100.0
15558;BME280;7880;50.110;9.372;2022-12-11T21:37:36;-2.994715272425674;;;-2.812;100.0
15558;BME280;7880;50.110;9.372;2022-12-11T21:42:41;-2.8686771373671944;;;-2.75;100.0
15558;BME280;7880;50.110;9.372;2022-12-11T21:47:46;-2.994715272425674;;;-2.75;100.0
15558;BME280;7880;50.110;9.372;2022-12-11T21:52:50;-2.803137235250324;;;-2.625;100.0
15558;BME280;7880;50.110;9.372;2022-12-11T21:57:55;-2.808178767928621;;;-2.562;100.0
15558;BME280;7880;50.110;9.372;2022-12-11T22:03:04;-2.8233033642172813;;;-2.5;100.0
15558;BME280;7880;50.110;9.372;2022-12-11T22:08:02;-2.808178767928621;;;-2.562;100.0
15558;BME280;7880;50.110;9.372;2022-12-11T22:13:06;-2.878760194865754;;;-2.625;100.0
15558;BME280;7880;50.110;9.372;2022-12-11T22:18:10;-2.7779295674932656;;;-2.562;100.0
15558;BME280;7880;50.110;9.372;2022-12-11T22:23:14;-2.7779295674932656;;;-2.5;100.0
15558;BME280;7880;50.110;9.372;2022-12-11T22:28:21;-2.7123895972734315;;;-2.437;100.0
15558;BME280;7880;50.110;9.372;2022-12-11T22:33:25;-2.808178767928621;;;-2.5;100.0
15558;BME280;7880;50.110;9.372;2022-12-11T22:38:29;-2.6871819033229256;;;-2.437;100.0
15558;BME280;7880;50.110;9.372;2022-12-11T22:43:33;-2.717431135190418;;;-2.437;100.0
15558;BME280;7880;50.110;9.372;2022-12-11T22:48:43;-2.7577634280489294;;;-2.5;100.0
15558;BME280;7880;50.110;9.372;2022-12-11T22:53:43;-2.656932660978055;;;-2.437;100.0
15558;BME280;7880;50.110;9.372;2022-12-11T22:58:47;-2.7527218924602495;;;-2.5;100.0
15558;BME280;7880;50.110;9.372;2022-12-11T23:03:54;-2.5964341448561754;;;-2.375;100.0
15558;BME280;7880;50.110;9.372;2022-12-11T23:08:56;-2.5762679635023233;;;-2.312;100.0
15558;BME280;7880;50.110;9.372;2022-12-11T23:14:04;-2.6468495778681245;;;-2.375;100.0
15558;BME280;7880;50.110;9.372;2022-12-11T23:19:04;-2.5964341448561754;;;-2.312;100.0
15558;BME280;7880;50.110;9.372;2022-12-11T23:24:08;-2.53593558682478;;;-2.25;100.0
15558;BME280;7880;50.110;9.372;2022-12-11T23:29:13;-2.45527077759034;;;-2.187;100.0
15558;BME280;7880;50.110;9.372;2022-12-11T23:34:23;-2.4703954349970445;;;-2.187;100.0
15558;BME280;7880;50.110;9.372;2022-12-11T23:39:22;-2.45527077759034;;;-2.125;100.0
15558;BME280;7880;50.110;9.372;2022-12-11T23:44:28;-2.465353882819181;;;-2.187;100.0